sensor_id;sensor_type;location;lat;lon;timestamp;P1;durP1;ratioP1;P2;durP2;ratioP2
60665;SDS011;59128;44.642;21.188;2022-08-02T00:00:24;3.67;;;1.70;;
60665;SDS011;59128;44.642;21.188;2022-08-02T00:02:51;3.47;;;1.60;;
60665;SDS011;59128;44.642;21.188;2022-08-02T00:05:17;2.00;;;1.73;;
60665;SDS011;59128;44.642;21.188;2022-08-02T00:07:43;2.22;;;1.70;;
60665;SDS011;59128;44.642;21.188;2022-08-02T00:10:09;1.95;;;1.40;;
60665;SDS011;59128;44.642;21.188;2022-08-02T00:12:36;2.20;;;1.40;;
60665;SDS011;59128;44.642;21.188;2022-08-02T00:15:03;2.70;;;1.67;;
60665;SDS011;59128;44.642;21.188;2022-08-02T00:17:29;2.22;;;1.75;;
60665;SDS011;59128;44.642;21.188;2022-08-02T00:19:55;2.20;;;1.80;;
60665;SDS011;59128;44.642;21.188;2022-08-02T00:22:21;1.67;;;1.58;;
60665;SDS011;59128;44.642;21.188;2022-08-02T00:24:47;2.45;;;1.73;;
60665;SDS011;59128;44.642;21.188;2022-08-02T00:27:13;2.07;;;1.50;;
60665;SDS011;59128;44.642;21.188;2022-08-02T00:29:39;2.30;;;1.73;;
60665;SDS011;59128;44.642;21.188;2022-08-02T00:32:05;2.70;;;1.90;;
60665;SDS011;59128;44.642;21.188;2022-08-02T00:34:31;2.93;;;1.80;;
60665;SDS011;59128;44.642;21.188;2022-08-02T00:36:58;7.65;;;2.28;;
60665;SDS011;59128;44.642;21.188;2022-08-02T00:39:24;8.00;;;2.22;;
60665;SDS011;59128;44.642;21.188;2022-08-02T00:41:51;6.50;;;2.60;;
60665;SDS011;59128;44.642;21.188;2022-08-02T00:44:18;7.97;;;2.38;;
60665;SDS011;59128;44.642;21.188;2022-08-02T00:46:44;5.70;;;2.20;;
60665;SDS011;59128;44.642;21.188;2022-08-02T00:49:11;3.72;;;1.95;;
60665;SDS011;59128;44.642;21.188;2022-08-02T00:51:37;4.07;;;2.00;;
60665;SDS011;59128;44.642;21.188;2022-08-02T00:54:04;2.83;;;2.15;;
60665;SDS011;59128;44.642;21.188;2022-08-02T00:56:30;4.40;;;2.28;;
60665;SDS011;59128;44.642;21.188;2022-08-02T00:58:56;3.33;;;1.92;;
60665;SDS011;59128;44.642;21.188;2022-08-02T01:01:22;4.22;;;2.25;;
60665;SDS011;59128;44.642;21.188;2022-08-02T01:04:03;5.03;;;1.95;;
60665;SDS011;59128;44.642;21.188;2022-08-02T01:06:29;3.80;;;1.90;;
60665;SDS011;59128;44.642;21.188;2022-08-02T01:08:57;3.80;;;2.22;;
60665;SDS011;59128;44.642;21.188;2022-08-02T01:11:24;2.00;;;1.80;;
60665;SDS011;59128;44.642;21.188;2022-08-02T01:13:50;4.45;;;2.55;;
60665;SDS011;59128;44.642;21.188;2022-08-02T01:16:18;3.72;;;2.03;;
60665;SDS011;59128;44.642;21.188;2022-08-02T01:18:47;3.05;;;2.00;;
60665;SDS011;59128;44.642;21.188;2022-08-02T01:29:09;3.92;;;2.30;;
60665;SDS011;59128;44.642;21.188;2022-08-02T01:31:41;2.47;;;1.80;;
60665;SDS011;59128;44.642;21.188;2022-08-02T01:36:37;4.00;;;2.20;;
60665;SDS011;59128;44.642;21.188;2022-08-02T01:39:03;2.85;;;2.25;;
60665;SDS011;59128;44.642;21.188;2022-08-02T01:41:30;2.67;;;1.90;;
60665;SDS011;59128;44.642;21.188;2022-08-02T01:43:57;2.78;;;2.15;;
60665;SDS011;59128;44.642;21.188;2022-08-02T01:46:24;2.30;;;2.10;;
60665;SDS011;59128;44.642;21.188;2022-08-02T01:48:52;3.60;;;2.20;;
60665;SDS011;59128;44.642;21.188;2022-08-02T01:51:19;3.35;;;2.10;;
60665;SDS011;59128;44.642;21.188;2022-08-02T01:54:08;3.78;;;2.35;;
60665;SDS011;59128;44.642;21.188;2022-08-02T01:56:36;3.53;;;2.10;;
60665;SDS011;59128;44.642;21.188;2022-08-02T01:59:03;3.28;;;2.45;;
60665;SDS011;59128;44.642;21.188;2022-08-02T02:01:30;2.97;;;2.17;;
60665;SDS011;59128;44.642;21.188;2022-08-02T02:03:57;3.53;;;2.33;;
60665;SDS011;59128;44.642;21.188;2022-08-02T02:06:24;3.38;;;2.47;;
60665;SDS011;59128;44.642;21.188;2022-08-02T02:08:50;3.55;;;2.30;;
60665;SDS011;59128;44.642;21.188;2022-08-02T02:11:17;3.13;;;2.55;;
60665;SDS011;59128;44.642;21.188;2022-08-02T02:13:43;4.00;;;2.50;;
60665;SDS011;59128;44.642;21.188;2022-08-02T02:16:09;2.88;;;2.50;;
60665;SDS011;59128;44.642;21.188;2022-08-02T02:18:38;3.28;;;2.60;;
60665;SDS011;59128;44.642;21.188;2022-08-02T02:21:04;3.40;;;2.60;;
60665;SDS011;59128;44.642;21.188;2022-08-02T02:23:30;3.90;;;2.65;;
60665;SDS011;59128;44.642;21.188;2022-08-02T02:25:57;3.85;;;2.70;;
60665;SDS011;59128;44.642;21.188;2022-08-02T02:28:26;3.97;;;2.85;;
60665;SDS011;59128;44.642;21.188;2022-08-02T02:31:07;5.47;;;3.25;;
60665;SDS011;59128;44.642;21.188;2022-08-02T02:33:36;3.80;;;2.53;;
60665;SDS011;59128;44.642;21.188;2022-08-02T02:36:03;3.95;;;2.40;;
60665;SDS011;59128;44.642;21.188;2022-08-02T02:38:30;3.08;;;2.20;;
60665;SDS011;59128;44.642;21.188;2022-08-02T02:40:58;3.40;;;2.70;;
60665;SDS011;59128;44.642;21.188;2022-08-02T02:43:26;3.83;;;2.40;;
60665;SDS011;59128;44.642;21.188;2022-08-02T02:45:53;4.45;;;2.60;;
60665;SDS011;59128;44.642;21.188;2022-08-02T02:48:20;3.85;;;2.58;;
60665;SDS011;59128;44.642;21.188;2022-08-02T02:50:46;4.35;;;2.72;;
60665;SDS011;59128;44.642;21.188;2022-08-02T02:53:13;3.78;;;2.83;;
60665;SDS011;59128;44.642;21.188;2022-08-02T02:55:41;4.30;;;2.80;;
60665;SDS011;59128;44.642;21.188;2022-08-02T02:58:08;4.97;;;3.33;;
60665;SDS011;59128;44.642;21.188;2022-08-02T03:00:34;5.00;;;3.20;;
60665;SDS011;59128;44.642;21.188;2022-08-02T03:03:19;5.22;;;3.42;;
60665;SDS011;59128;44.642;21.188;2022-08-02T03:05:45;4.50;;;3.40;;
60665;SDS011;59128;44.642;21.188;2022-08-02T03:08:11;5.55;;;3.35;;
60665;SDS011;59128;44.642;21.188;2022-08-02T03:10:38;4.93;;;3.63;;
60665;SDS011;59128;44.642;21.188;2022-08-02T03:13:04;4.65;;;3.45;;
60665;SDS011;59128;44.642;21.188;2022-08-02T03:15:30;5.53;;;3.65;;
60665;SDS011;59128;44.642;21.188;2022-08-02T03:17:56;5.28;;;3.20;;
60665;SDS011;59128;44.642;21.188;2022-08-02T03:20:22;4.47;;;2.85;;
60665;SDS011;59128;44.642;21.188;2022-08-02T03:22:49;4.10;;;2.90;;
60665;SDS011;59128;44.642;21.188;2022-08-02T03:25:16;3.55;;;3.10;;
60665;SDS011;59128;44.642;21.188;2022-08-02T03:27:43;5.03;;;3.70;;
60665;SDS011;59128;44.642;21.188;2022-08-02T03:30:10;4.40;;;3.08;;
60665;SDS011;59128;44.642;21.188;2022-08-02T03:32:37;4.60;;;3.60;;
60665;SDS011;59128;44.642;21.188;2022-08-02T03:35:04;5.65;;;3.72;;
60665;SDS011;59128;44.642;21.188;2022-08-02T03:37:31;5.40;;;4.10;;
60665;SDS011;59128;44.642;21.188;2022-08-02T03:39:58;6.47;;;4.10;;
60665;SDS011;59128;44.642;21.188;2022-08-02T03:42:25;6.22;;;4.13;;
60665;SDS011;59128;44.642;21.188;2022-08-02T03:44:52;5.65;;;4.07;;
60665;SDS011;59128;44.642;21.188;2022-08-02T03:47:18;6.55;;;4.32;;
60665;SDS011;59128;44.642;21.188;2022-08-02T03:49:45;6.85;;;4.50;;
60665;SDS011;59128;44.642;21.188;2022-08-02T03:52:12;6.70;;;4.38;;
60665;SDS011;59128;44.642;21.188;2022-08-02T03:54:38;5.20;;;4.20;;
60665;SDS011;59128;44.642;21.188;2022-08-02T03:57:05;5.07;;;4.10;;
60665;SDS011;59128;44.642;21.188;2022-08-02T03:59:41;6.35;;;3.90;;
60665;SDS011;59128;44.642;21.188;2022-08-02T04:02:07;7.60;;;4.13;;
60665;SDS011;59128;44.642;21.188;2022-08-02T04:04:33;4.28;;;3.90;;
60665;SDS011;59128;44.642;21.188;2022-08-02T04:06:59;5.53;;;4.30;;
60665;SDS011;59128;44.642;21.188;2022-08-02T04:09:25;4.55;;;4.15;;
60665;SDS011;59128;44.642;21.188;2022-08-02T04:11:51;4.60;;;4.20;;
60665;SDS011;59128;44.642;21.188;2022-08-02T04:14:17;4.88;;;3.95;;
60665;SDS011;59128;44.642;21.188;2022-08-02T04:17:00;5.22;;;3.90;;
60665;SDS011;59128;44.642;21.188;2022-08-02T04:19:46;4.70;;;4.00;;
60665;SDS011;59128;44.642;21.188;2022-08-02T04:22:15;5.43;;;4.53;;
60665;SDS011;59128;44.642;21.188;2022-08-02T04:24:42;4.60;;;4.18;;
60665;SDS011;59128;44.642;21.188;2022-08-02T04:27:11;5.97;;;4.40;;
60665;SDS011;59128;44.642;21.188;2022-08-02T04:29:38;6.05;;;4.15;;
60665;SDS011;59128;44.642;21.188;2022-08-02T04:32:05;5.80;;;4.25;;
60665;SDS011;59128;44.642;21.188;2022-08-02T04:34:31;6.50;;;4.13;;
60665;SDS011;59128;44.642;21.188;2022-08-02T04:36:57;4.70;;;4.20;;
60665;SDS011;59128;44.642;21.188;2022-08-02T04:39:24;6.80;;;4.90;;
60665;SDS011;59128;44.642;21.188;2022-08-02T04:41:50;6.55;;;4.32;;
60665;SDS011;59128;44.642;21.188;2022-08-02T04:44:16;5.23;;;4.70;;
60665;SDS011;59128;44.642;21.188;2022-08-02T04:46:42;8.57;;;5.20;;
60665;SDS011;59128;44.642;21.188;2022-08-02T04:49:09;8.40;;;6.20;;
60665;SDS011;59128;44.642;21.188;2022-08-02T04:51:35;7.83;;;5.60;;
60665;SDS011;59128;44.642;21.188;2022-08-02T04:54:05;8.68;;;5.90;;
60665;SDS011;59128;44.642;21.188;2022-08-02T04:56:31;9.43;;;5.75;;
60665;SDS011;59128;44.642;21.188;2022-08-02T04:58:57;8.10;;;5.93;;
60665;SDS011;59128;44.642;21.188;2022-08-02T05:01:23;6.43;;;5.25;;
60665;SDS011;59128;44.642;21.188;2022-08-02T05:03:49;8.27;;;5.22;;
60665;SDS011;59128;44.642;21.188;2022-08-02T05:06:15;8.65;;;6.20;;
60665;SDS011;59128;44.642;21.188;2022-08-02T05:08:43;8.63;;;6.90;;
60665;SDS011;59128;44.642;21.188;2022-08-02T05:11:09;8.25;;;7.00;;
60665;SDS011;59128;44.642;21.188;2022-08-02T05:13:35;10.07;;;7.10;;
60665;SDS011;59128;44.642;21.188;2022-08-02T05:16:01;9.52;;;6.55;;
60665;SDS011;59128;44.642;21.188;2022-08-02T05:18:29;9.95;;;6.72;;
60665;SDS011;59128;44.642;21.188;2022-08-02T05:20:55;9.80;;;6.90;;
60665;SDS011;59128;44.642;21.188;2022-08-02T05:23:21;7.93;;;6.78;;
60665;SDS011;59128;44.642;21.188;2022-08-02T05:25:47;7.97;;;6.57;;
60665;SDS011;59128;44.642;21.188;2022-08-02T05:28:13;7.38;;;6.47;;
60665;SDS011;59128;44.642;21.188;2022-08-02T05:30:39;11.18;;;6.72;;
60665;SDS011;59128;44.642;21.188;2022-08-02T05:33:06;7.20;;;6.35;;
60665;SDS011;59128;44.642;21.188;2022-08-02T05:35:32;8.23;;;6.60;;
60665;SDS011;59128;44.642;21.188;2022-08-02T05:37:59;7.67;;;6.50;;
60665;SDS011;59128;44.642;21.188;2022-08-02T05:40:25;10.35;;;6.93;;
60665;SDS011;59128;44.642;21.188;2022-08-02T05:42:51;7.82;;;6.50;;
60665;SDS011;59128;44.642;21.188;2022-08-02T05:45:17;6.85;;;6.15;;
60665;SDS011;59128;44.642;21.188;2022-08-02T05:47:43;7.78;;;5.82;;
60665;SDS011;59128;44.642;21.188;2022-08-02T05:50:09;6.25;;;5.65;;
60665;SDS011;59128;44.642;21.188;2022-08-02T05:55:26;10.32;;;5.50;;
60665;SDS011;59128;44.642;21.188;2022-08-02T05:58:01;4.70;;;3.40;;
60665;SDS011;59128;44.642;21.188;2022-08-02T06:00:30;5.53;;;4.38;;
60665;SDS011;59128;44.642;21.188;2022-08-02T06:05:22;7.63;;;4.50;;
60665;SDS011;59128;44.642;21.188;2022-08-02T06:07:51;8.80;;;4.30;;
60665;SDS011;59128;44.642;21.188;2022-08-02T06:10:19;5.20;;;4.25;;
60665;SDS011;59128;44.642;21.188;2022-08-02T06:12:48;5.32;;;4.30;;
60665;SDS011;59128;44.642;21.188;2022-08-02T06:15:15;6.75;;;4.20;;
60665;SDS011;59128;44.642;21.188;2022-08-02T06:17:42;4.75;;;3.75;;
60665;SDS011;59128;44.642;21.188;2022-08-02T06:20:09;4.77;;;3.40;;
60665;SDS011;59128;44.642;21.188;2022-08-02T06:22:36;4.53;;;3.70;;
60665;SDS011;59128;44.642;21.188;2022-08-02T06:25:05;4.05;;;3.55;;
60665;SDS011;59128;44.642;21.188;2022-08-02T06:27:31;5.67;;;3.20;;
60665;SDS011;59128;44.642;21.188;2022-08-02T06:29:58;7.07;;;3.15;;
60665;SDS011;59128;44.642;21.188;2022-08-02T06:32:25;3.53;;;3.20;;
60665;SDS011;59128;44.642;21.188;2022-08-02T06:34:52;3.03;;;2.72;;
60665;SDS011;59128;44.642;21.188;2022-08-02T06:37:21;3.13;;;2.55;;
60665;SDS011;59128;44.642;21.188;2022-08-02T06:39:53;3.53;;;2.40;;
60665;SDS011;59128;44.642;21.188;2022-08-02T06:42:22;3.50;;;2.58;;
60665;SDS011;59128;44.642;21.188;2022-08-02T06:44:51;3.60;;;2.30;;
60665;SDS011;59128;44.642;21.188;2022-08-02T06:47:17;4.10;;;2.08;;
60665;SDS011;59128;44.642;21.188;2022-08-02T06:49:43;3.33;;;2.58;;
60665;SDS011;59128;44.642;21.188;2022-08-02T06:52:09;2.75;;;2.22;;
60665;SDS011;59128;44.642;21.188;2022-08-02T06:54:35;3.28;;;2.30;;
60665;SDS011;59128;44.642;21.188;2022-08-02T06:57:03;4.25;;;2.30;;
60665;SDS011;59128;44.642;21.188;2022-08-02T06:59:29;3.88;;;2.10;;
60665;SDS011;59128;44.642;21.188;2022-08-02T07:01:55;4.32;;;2.20;;
60665;SDS011;59128;44.642;21.188;2022-08-02T07:04:23;3.72;;;1.90;;
60665;SDS011;59128;44.642;21.188;2022-08-02T07:06:49;6.80;;;2.15;;
60665;SDS011;59128;44.642;21.188;2022-08-02T07:09:15;3.47;;;2.05;;
60665;SDS011;59128;44.642;21.188;2022-08-02T07:11:41;8.85;;;2.60;;
60665;SDS011;59128;44.642;21.188;2022-08-02T07:14:07;3.35;;;1.70;;
60665;SDS011;59128;44.642;21.188;2022-08-02T07:16:33;3.47;;;2.00;;
60665;SDS011;59128;44.642;21.188;2022-08-02T07:19:00;3.55;;;1.77;;
60665;SDS011;59128;44.642;21.188;2022-08-02T07:21:26;21.55;;;3.30;;
60665;SDS011;59128;44.642;21.188;2022-08-02T07:23:52;6.72;;;1.67;;
60665;SDS011;59128;44.642;21.188;2022-08-02T07:26:18;10.57;;;2.10;;
60665;SDS011;59128;44.642;21.188;2022-08-02T07:28:44;4.57;;;1.48;;
60665;SDS011;59128;44.642;21.188;2022-08-02T07:31:10;11.98;;;2.45;;
60665;SDS011;59128;44.642;21.188;2022-08-02T07:33:36;6.03;;;1.90;;
60665;SDS011;59128;44.642;21.188;2022-08-02T07:36:02;3.00;;;1.88;;
60665;SDS011;59128;44.642;21.188;2022-08-02T07:38:28;4.03;;;1.80;;
60665;SDS011;59128;44.642;21.188;2022-08-02T07:40:54;3.83;;;1.50;;
60665;SDS011;59128;44.642;21.188;2022-08-02T07:43:20;2.95;;;1.38;;
60665;SDS011;59128;44.642;21.188;2022-08-02T07:45:46;3.10;;;2.88;;
60665;SDS011;59128;44.642;21.188;2022-08-02T07:48:12;3.47;;;1.63;;
60665;SDS011;59128;44.642;21.188;2022-08-02T07:50:38;7.47;;;2.47;;
60665;SDS011;59128;44.642;21.188;2022-08-02T07:53:04;5.78;;;2.00;;
60665;SDS011;59128;44.642;21.188;2022-08-02T07:55:30;14.82;;;3.40;;
60665;SDS011;59128;44.642;21.188;2022-08-02T07:57:56;9.60;;;5.65;;
60665;SDS011;59128;44.642;21.188;2022-08-02T08:00:22;4.28;;;1.90;;
60665;SDS011;59128;44.642;21.188;2022-08-02T08:02:48;12.15;;;2.63;;
60665;SDS011;59128;44.642;21.188;2022-08-02T08:05:14;17.80;;;2.17;;
60665;SDS011;59128;44.642;21.188;2022-08-02T08:07:41;15.18;;;1.90;;
60665;SDS011;59128;44.642;21.188;2022-08-02T08:10:07;2.90;;;1.63;;
60665;SDS011;59128;44.642;21.188;2022-08-02T08:12:33;18.98;;;1.85;;
60665;SDS011;59128;44.642;21.188;2022-08-02T08:14:59;2.17;;;1.40;;
60665;SDS011;59128;44.642;21.188;2022-08-02T08:17:25;3.00;;;1.58;;
60665;SDS011;59128;44.642;21.188;2022-08-02T08:24:43;7.80;;;2.10;;
60665;SDS011;59128;44.642;21.188;2022-08-02T08:27:09;8.38;;;1.70;;
60665;SDS011;59128;44.642;21.188;2022-08-02T08:29:38;6.95;;;1.83;;
60665;SDS011;59128;44.642;21.188;2022-08-02T08:32:05;4.45;;;1.33;;
60665;SDS011;59128;44.642;21.188;2022-08-02T08:34:32;7.82;;;1.48;;
60665;SDS011;59128;44.642;21.188;2022-08-02T08:36:59;2.95;;;1.30;;
60665;SDS011;59128;44.642;21.188;2022-08-02T08:39:26;3.08;;;1.10;;
60665;SDS011;59128;44.642;21.188;2022-08-02T08:41:52;1.83;;;1.00;;
60665;SDS011;59128;44.642;21.188;2022-08-02T08:44:18;1.20;;;0.55;;
60665;SDS011;59128;44.642;21.188;2022-08-02T08:46:44;1.98;;;0.60;;
60665;SDS011;59128;44.642;21.188;2022-08-02T08:49:17;1.63;;;0.70;;
60665;SDS011;59128;44.642;21.188;2022-08-02T08:51:47;7.55;;;0.88;;
60665;SDS011;59128;44.642;21.188;2022-08-02T08:54:15;1.27;;;0.65;;
60665;SDS011;59128;44.642;21.188;2022-08-02T08:56:42;0.70;;;0.50;;
60665;SDS011;59128;44.642;21.188;2022-08-02T08:59:08;2.58;;;0.90;;
60665;SDS011;59128;44.642;21.188;2022-08-02T09:01:34;4.68;;;0.90;;
60665;SDS011;59128;44.642;21.188;2022-08-02T09:04:00;1.48;;;0.93;;
60665;SDS011;59128;44.642;21.188;2022-08-02T09:06:26;1.42;;;0.80;;
60665;SDS011;59128;44.642;21.188;2022-08-02T09:08:53;1.02;;;0.70;;
60665;SDS011;59128;44.642;21.188;2022-08-02T09:11:21;0.90;;;0.73;;
60665;SDS011;59128;44.642;21.188;2022-08-02T09:13:49;1.17;;;1.05;;
60665;SDS011;59128;44.642;21.188;2022-08-02T09:16:15;3.08;;;1.13;;
60665;SDS011;59128;44.642;21.188;2022-08-02T09:18:51;2.47;;;1.88;;
60665;SDS011;59128;44.642;21.188;2022-08-02T09:21:18;2.47;;;1.00;;
60665;SDS011;59128;44.642;21.188;2022-08-02T09:23:45;0.85;;;0.80;;
60665;SDS011;59128;44.642;21.188;2022-08-02T09:26:15;1.73;;;1.17;;
60665;SDS011;59128;44.642;21.188;2022-08-02T09:28:43;0.90;;;0.90;;
60665;SDS011;59128;44.642;21.188;2022-08-02T09:31:17;1.67;;;0.65;;
60665;SDS011;59128;44.642;21.188;2022-08-02T09:33:45;3.25;;;0.90;;
60665;SDS011;59128;44.642;21.188;2022-08-02T09:36:15;23.45;;;3.35;;
60665;SDS011;59128;44.642;21.188;2022-08-02T09:39:00;1.02;;;0.93;;
60665;SDS011;59128;44.642;21.188;2022-08-02T09:41:28;1.17;;;1.02;;
60665;SDS011;59128;44.642;21.188;2022-08-02T09:43:55;2.92;;;1.10;;
60665;SDS011;59128;44.642;21.188;2022-08-02T09:46:23;2.22;;;1.00;;
60665;SDS011;59128;44.642;21.188;2022-08-02T09:51:16;2.45;;;1.10;;
60665;SDS011;59128;44.642;21.188;2022-08-02T09:53:42;2.65;;;1.30;;
60665;SDS011;59128;44.642;21.188;2022-08-02T09:56:08;2.80;;;1.20;;
60665;SDS011;59128;44.642;21.188;2022-08-02T09:58:38;2.28;;;1.08;;
60665;SDS011;59128;44.642;21.188;2022-08-02T10:01:04;1.50;;;1.00;;
60665;SDS011;59128;44.642;21.188;2022-08-02T10:03:30;2.55;;;1.48;;
60665;SDS011;59128;44.642;21.188;2022-08-02T10:05:56;1.40;;;0.95;;
60665;SDS011;59128;44.642;21.188;2022-08-02T10:08:24;1.27;;;1.17;;
60665;SDS011;59128;44.642;21.188;2022-08-02T10:10:50;1.27;;;1.17;;
60665;SDS011;59128;44.642;21.188;2022-08-02T10:13:33;1.38;;;1.20;;
60665;SDS011;59128;44.642;21.188;2022-08-02T10:16:00;1.75;;;1.30;;
60665;SDS011;59128;44.642;21.188;2022-08-02T10:18:26;2.17;;;1.20;;
60665;SDS011;59128;44.642;21.188;2022-08-02T10:20:53;3.28;;;1.40;;
60665;SDS011;59128;44.642;21.188;2022-08-02T10:23:21;3.00;;;1.10;;
60665;SDS011;59128;44.642;21.188;2022-08-02T10:25:47;2.70;;;1.45;;
60665;SDS011;59128;44.642;21.188;2022-08-02T10:28:15;2.60;;;1.30;;
60665;SDS011;59128;44.642;21.188;2022-08-02T10:30:44;2.60;;;1.10;;
60665;SDS011;59128;44.642;21.188;2022-08-02T10:33:12;1.20;;;1.10;;
60665;SDS011;59128;44.642;21.188;2022-08-02T10:35:41;2.75;;;1.30;;
60665;SDS011;59128;44.642;21.188;2022-08-02T10:38:08;3.75;;;1.40;;
60665;SDS011;59128;44.642;21.188;2022-08-02T10:40:42;3.15;;;1.38;;
60665;SDS011;59128;44.642;21.188;2022-08-02T10:43:08;2.47;;;1.52;;
60665;SDS011;59128;44.642;21.188;2022-08-02T10:45:34;1.77;;;1.67;;
60665;SDS011;59128;44.642;21.188;2022-08-02T10:48:01;2.03;;;1.35;;
60665;SDS011;59128;44.642;21.188;2022-08-02T10:55:50;1.58;;;1.48;;
60665;SDS011;59128;44.642;21.188;2022-08-02T10:58:24;1.95;;;1.67;;
60665;SDS011;59128;44.642;21.188;2022-08-02T11:00:55;1.50;;;1.40;;
60665;SDS011;59128;44.642;21.188;2022-08-02T11:06:02;2.65;;;1.40;;
60665;SDS011;59128;44.642;21.188;2022-08-02T11:08:29;1.20;;;1.10;;
60665;SDS011;59128;44.642;21.188;2022-08-02T11:10:58;1.40;;;1.30;;
60665;SDS011;59128;44.642;21.188;2022-08-02T11:13:25;1.15;;;1.05;;
60665;SDS011;59128;44.642;21.188;2022-08-02T11:15:59;4.20;;;1.38;;
60665;SDS011;59128;44.642;21.188;2022-08-02T11:23:49;1.52;;;1.40;;
60665;SDS011;59128;44.642;21.188;2022-08-02T11:28:57;1.98;;;1.10;;
60665;SDS011;59128;44.642;21.188;2022-08-02T11:31:23;2.03;;;1.38;;
60665;SDS011;59128;44.642;21.188;2022-08-02T11:33:49;1.80;;;1.30;;
60665;SDS011;59128;44.642;21.188;2022-08-02T11:36:16;1.45;;;1.35;;
60665;SDS011;59128;44.642;21.188;2022-08-02T11:38:43;1.67;;;1.30;;
60665;SDS011;59128;44.642;21.188;2022-08-02T11:41:09;2.45;;;1.30;;
60665;SDS011;59128;44.642;21.188;2022-08-02T11:43:35;2.90;;;1.33;;
60665;SDS011;59128;44.642;21.188;2022-08-02T11:46:02;1.70;;;1.30;;
60665;SDS011;59128;44.642;21.188;2022-08-02T11:48:46;2.58;;;1.42;;
60665;SDS011;59128;44.642;21.188;2022-08-02T11:51:13;2.15;;;1.25;;
60665;SDS011;59128;44.642;21.188;2022-08-02T11:53:40;2.47;;;1.35;;
60665;SDS011;59128;44.642;21.188;2022-08-02T11:56:07;2.13;;;1.40;;
60665;SDS011;59128;44.642;21.188;2022-08-02T11:58:33;1.98;;;1.35;;
60665;SDS011;59128;44.642;21.188;2022-08-02T12:00:59;1.48;;;1.38;;
60665;SDS011;59128;44.642;21.188;2022-08-02T12:03:26;1.60;;;1.50;;
60665;SDS011;59128;44.642;21.188;2022-08-02T12:05:52;1.42;;;1.33;;
60665;SDS011;59128;44.642;21.188;2022-08-02T12:08:19;1.33;;;1.10;;
60665;SDS011;59128;44.642;21.188;2022-08-02T12:10:48;1.55;;;1.40;;
60665;SDS011;59128;44.642;21.188;2022-08-02T12:13:15;1.52;;;1.42;;
60665;SDS011;59128;44.642;21.188;2022-08-02T12:15:41;3.70;;;1.48;;
60665;SDS011;59128;44.642;21.188;2022-08-02T12:18:11;1.48;;;1.38;;
60665;SDS011;59128;44.642;21.188;2022-08-02T12:20:57;2.47;;;1.80;;
60665;SDS011;59128;44.642;21.188;2022-08-02T12:23:23;2.80;;;1.35;;
60665;SDS011;59128;44.642;21.188;2022-08-02T12:26:02;2.08;;;1.60;;
60665;SDS011;59128;44.642;21.188;2022-08-02T12:28:31;1.40;;;1.30;;
60665;SDS011;59128;44.642;21.188;2022-08-02T12:30:58;1.40;;;1.30;;
60665;SDS011;59128;44.642;21.188;2022-08-02T12:33:25;1.75;;;1.65;;
60665;SDS011;59128;44.642;21.188;2022-08-02T12:35:51;2.83;;;1.20;;
60665;SDS011;59128;44.642;21.188;2022-08-02T12:38:18;1.60;;;1.50;;
60665;SDS011;59128;44.642;21.188;2022-08-02T12:40:44;1.30;;;1.20;;
60665;SDS011;59128;44.642;21.188;2022-08-02T12:43:44;1.88;;;1.10;;
60665;SDS011;59128;44.642;21.188;2022-08-02T12:46:03;1.90;;;1.50;;
60665;SDS011;59128;44.642;21.188;2022-08-02T12:48:36;2.95;;;2.65;;
60665;SDS011;59128;44.642;21.188;2022-08-02T12:53:49;1.67;;;1.27;;
60665;SDS011;59128;44.642;21.188;2022-08-02T12:59:11;2.05;;;1.25;;
60665;SDS011;59128;44.642;21.188;2022-08-02T13:01:38;3.17;;;1.25;;
60665;SDS011;59128;44.642;21.188;2022-08-02T13:04:04;3.30;;;1.15;;
60665;SDS011;59128;44.642;21.188;2022-08-02T13:06:31;2.22;;;1.42;;
60665;SDS011;59128;44.642;21.188;2022-08-02T13:08:57;3.90;;;1.20;;
60665;SDS011;59128;44.642;21.188;2022-08-02T13:11:24;1.60;;;1.10;;
60665;SDS011;59128;44.642;21.188;2022-08-02T13:13:50;3.22;;;1.52;;
60665;SDS011;59128;44.642;21.188;2022-08-02T13:16:16;2.53;;;1.15;;
60665;SDS011;59128;44.642;21.188;2022-08-02T13:18:42;1.85;;;1.20;;
60665;SDS011;59128;44.642;21.188;2022-08-02T13:21:12;2.10;;;1.17;;
60665;SDS011;59128;44.642;21.188;2022-08-02T13:23:38;2.38;;;1.10;;
60665;SDS011;59128;44.642;21.188;2022-08-02T13:26:04;3.47;;;1.25;;
60665;SDS011;59128;44.642;21.188;2022-08-02T13:28:30;1.40;;;1.30;;
60665;SDS011;59128;44.642;21.188;2022-08-02T13:30:56;1.17;;;1.08;;
60665;SDS011;59128;44.642;21.188;2022-08-02T13:33:22;2.10;;;1.30;;
60665;SDS011;59128;44.642;21.188;2022-08-02T13:35:48;2.67;;;1.23;;
60665;SDS011;59128;44.642;21.188;2022-08-02T13:38:15;1.73;;;1.50;;
60665;SDS011;59128;44.642;21.188;2022-08-02T13:40:41;1.40;;;1.30;;
60665;SDS011;59128;44.642;21.188;2022-08-02T13:43:25;1.45;;;1.15;;
60665;SDS011;59128;44.642;21.188;2022-08-02T13:45:52;1.30;;;1.20;;
60665;SDS011;59128;44.642;21.188;2022-08-02T13:48:18;3.63;;;1.40;;
60665;SDS011;59128;44.642;21.188;2022-08-02T13:50:44;1.25;;;1.15;;
60665;SDS011;59128;44.642;21.188;2022-08-02T13:53:10;2.03;;;0.90;;
60665;SDS011;59128;44.642;21.188;2022-08-02T13:55:36;3.53;;;2.97;;
60665;SDS011;59128;44.642;21.188;2022-08-02T13:58:03;2.80;;;2.60;;
60665;SDS011;59128;44.642;21.188;2022-08-02T14:00:30;2.35;;;2.15;;
60665;SDS011;59128;44.642;21.188;2022-08-02T14:02:56;5.15;;;1.92;;
60665;SDS011;59128;44.642;21.188;2022-08-02T14:05:22;1.58;;;1.48;;
60665;SDS011;59128;44.642;21.188;2022-08-02T14:07:54;4.35;;;1.20;;
60665;SDS011;59128;44.642;21.188;2022-08-02T14:10:20;1.42;;;1.30;;
60665;SDS011;59128;44.642;21.188;2022-08-02T14:12:46;4.10;;;1.80;;
60665;SDS011;59128;44.642;21.188;2022-08-02T14:15:12;4.60;;;2.80;;
60665;SDS011;59128;44.642;21.188;2022-08-02T14:17:38;1.77;;;1.20;;
60665;SDS011;59128;44.642;21.188;2022-08-02T14:20:05;1.60;;;1.50;;
60665;SDS011;59128;44.642;21.188;2022-08-02T14:22:31;4.60;;;2.13;;
60665;SDS011;59128;44.642;21.188;2022-08-02T14:24:57;5.03;;;2.35;;
60665;SDS011;59128;44.642;21.188;2022-08-02T14:27:23;2.95;;;2.65;;
60665;SDS011;59128;44.642;21.188;2022-08-02T14:29:49;1.73;;;1.63;;
60665;SDS011;59128;44.642;21.188;2022-08-02T14:32:15;2.20;;;1.85;;
60665;SDS011;59128;44.642;21.188;2022-08-02T14:34:41;1.60;;;1.50;;
60665;SDS011;59128;44.642;21.188;2022-08-02T14:37:08;3.97;;;1.60;;
60665;SDS011;59128;44.642;21.188;2022-08-02T14:39:35;2.20;;;1.58;;
60665;SDS011;59128;44.642;21.188;2022-08-02T14:42:01;2.05;;;1.70;;
60665;SDS011;59128;44.642;21.188;2022-08-02T14:44:27;2.50;;;1.60;;
60665;SDS011;59128;44.642;21.188;2022-08-02T14:46:53;1.50;;;1.30;;
60665;SDS011;59128;44.642;21.188;2022-08-02T14:49:20;2.53;;;1.40;;
60665;SDS011;59128;44.642;21.188;2022-08-02T14:51:46;2.90;;;1.27;;
60665;SDS011;59128;44.642;21.188;2022-08-02T14:54:12;2.67;;;1.40;;
60665;SDS011;59128;44.642;21.188;2022-08-02T14:56:38;1.50;;;1.40;;
60665;SDS011;59128;44.642;21.188;2022-08-02T14:59:04;1.42;;;1.33;;
60665;SDS011;59128;44.642;21.188;2022-08-02T15:01:30;1.63;;;1.50;;
60665;SDS011;59128;44.642;21.188;2022-08-02T15:03:56;1.63;;;1.37;;
60665;SDS011;59128;44.642;21.188;2022-08-02T15:06:23;1.80;;;1.30;;
60665;SDS011;59128;44.642;21.188;2022-08-02T15:08:52;1.43;;;1.33;;
60665;SDS011;59128;44.642;21.188;2022-08-02T15:11:18;1.40;;;1.30;;
60665;SDS011;59128;44.642;21.188;2022-08-02T15:13:44;2.83;;;1.40;;
60665;SDS011;59128;44.642;21.188;2022-08-02T15:16:10;4.65;;;1.30;;
60665;SDS011;59128;44.642;21.188;2022-08-02T15:18:36;1.85;;;1.48;;